Time;durP1;ratioP1;P1;durP2;ratioP2;P2;SDS_P1;SDS_P2;PMS_P1;PMS_P2;Temp;Humidity;BMP_temperature;BMP_pressure;BME280_temperature;BME280_humidity;BME280_pressure;Samples;Min_cycle;Max_cycle;Signal;HPM_P1;HPM_P2
2022/05/15 00:02:06;;;;;;;19.10;7.70;;;8.70;1.00;;;;;;5110163;28;20413;-53
2022/05/15 00:04:32;;;;;;;26.30;7.17;;;8.60;99.90;;;;;;5108460;28;20509;-53
2022/05/15 00:06:58;;;;;;;28.70;7.50;;;8.60;99.90;;;;;;5106193;28;20517;-53
2022/05/15 00:09:23;;;;;;;24.23;7.60;;;8.60;50.80;;;;;;5099380;28;20197;-53
2022/05/15 00:11:49;;;;;;;25.20;7.53;;;8.50;99.90;;;;;;5108790;28;20192;-53
2022/05/15 00:14:15;;;;;;;29.13;8.47;;;8.50;1.00;;;;;;5107852;28;20201;-53
2022/05/15 00:16:41;;;;;;;27.77;8.80;;;8.50;1.00;;;;;;5088352;28;20251;-53
2022/05/15 00:19:07;;;;;;;19.63;7.87;;;8.50;1.00;;;;;;5096145;28;20498;-53
2022/05/15 00:21:33;;;;;;;26.73;8.00;;;8.50;99.90;;;;;;5093246;28;20236;-53
2022/05/15 00:23:59;;;;;;;24.23;7.93;;;8.50;1.00;;;;;;5099674;28;20258;-53
2022/05/15 00:26:25;;;;;;;30.77;8.50;;;8.50;99.90;;;;;;5106465;28;20208;-53
2022/05/15 00:28:51;;;;;;;27.70;8.80;;;8.40;1.00;;;;;;5099701;28;20426;-53
2022/05/15 00:31:16;;;;;;;25.40;7.80;;;8.50;99.90;;;;;;5105307;28;20430;-53
2022/05/15 00:33:44;;;;;;;19.97;8.17;;;8.40;8.30;;;;;;5098875;28;20189;-53
2022/05/15 00:36:09;;;;;;;23.77;7.50;;;8.40;99.90;;;;;;5102271;28;20203;-53
2022/05/15 00:38:35;;;;;;;26.73;8.10;;;8.40;28.60;;;;;;5109992;28;20499;-53
2022/05/15 00:41:00;;;;;;;23.30;7.93;;;8.30;1.00;;;;;;5105152;28;20526;-53
2022/05/15 00:43:50;;;;;;;26.57;8.23;;;8.30;1.00;;;;;;5106237;28;20196;-53
2022/05/15 00:46:21;;;;;;;24.27;7.97;;;8.30;1.00;;;;;;5103348;28;20200;-53
2022/05/15 00:48:48;;;;;;;20.33;7.83;;;8.30;59.90;;;;;;5105459;28;20475;-53
2022/05/15 00:51:26;;;;;;;25.13;8.70;;;8.20;99.90;;;;;;5103388;28;20469;-53
2022/05/15 00:53:57;;;;;;;28.00;8.70;;;8.20;1.00;;;;;;5109281;28;20422;-53
2022/05/15 00:56:26;;;;;;;31.00;8.27;;;8.20;51.40;;;;;;5104193;28;20470;-54
2022/05/15 00:58:58;;;;;;;25.37;8.50;;;8.20;1.00;;;;;;5098966;28;20491;-53
2022/05/15 01:01:24;;;;;;;23.30;8.23;;;8.20;99.90;;;;;;5105692;28;20422;-53
2022/05/15 01:03:50;;;;;;;26.00;8.87;;;8.20;99.90;;;;;;5098223;28;20461;-53
2022/05/15 01:06:17;;;;;;;26.70;7.90;;;8.10;1.00;;;;;;5102507;28;20434;-53
2022/05/15 01:08:42;;;;;;;24.60;9.20;;;8.10;99.90;;;;;;5100566;28;20219;-53
2022/05/15 01:11:12;;;;;;;32.97;9.13;;;8.00;1.00;;;;;;5109185;28;20469;-53
2022/05/15 01:13:40;;;;;;;23.27;8.10;;;8.00;1.00;;;;;;5107072;28;20200;-54
2022/05/15 01:16:06;;;;;;;27.10;8.37;;;7.90;99.90;;;;;;5102456;28;20802;-53
2022/05/15 01:18:35;;;;;;;32.23;8.20;;;7.90;99.90;;;;;;5101233;28;20495;-53
2022/05/15 01:21:02;;;;;;;21.57;9.20;;;7.80;99.90;;;;;;5100927;28;20466;-54
2022/05/15 01:23:31;;;;;;;25.70;9.50;;;7.80;99.90;;;;;;5105799;28;20566;-53
2022/05/15 01:25:58;;;;;;;33.40;9.37;;;7.80;99.90;;;;;;5105376;28;20457;-53
2022/05/15 01:28:27;;;;;;;27.30;10.10;;;7.70;1.00;;;;;;5102299;28;20457;-53
2022/05/15 01:30:57;;;;;;;26.40;8.93;;;7.70;57.90;;;;;;5103475;28;20441;-53
2022/05/15 01:33:22;;;;;;;29.90;9.10;;;7.70;1.00;;;;;;5098630;28;20469;-53
2022/05/15 01:35:49;;;;;;;29.23;9.33;;;7.70;1.00;;;;;;5102674;28;20494;-53
2022/05/15 01:38:15;;;;;;;25.40;9.70;;;7.60;99.90;;;;;;5102318;28;20292;-53
2022/05/15 01:40:41;;;;;;;24.90;10.27;;;7.60;1.00;;;;;;5102961;28;20786;-53
2022/05/15 01:43:07;;;;;;;27.17;9.43;;;7.50;99.90;;;;;;5103990;28;20495;-53
2022/05/15 01:45:34;;;;;;;25.27;9.40;;;7.60;99.90;;;;;;5096246;28;20496;-53
2022/05/15 01:47:59;;;;;;;28.43;9.90;;;7.60;99.90;;;;;;5096413;28;20446;-53
2022/05/15 01:50:25;;;;;;;29.07;9.30;;;7.60;99.90;;;;;;5103063;28;20458;-53
2022/05/15 01:52:51;;;;;;;28.07;10.53;;;7.60;99.90;;;;;;5099724;28;20200;-53
2022/05/15 01:55:17;;;;;;;29.27;9.87;;;7.60;99.90;;;;;;5105690;28;20478;-53
2022/05/15 01:57:43;;;;;;;20.60;8.97;;;7.60;99.90;;;;;;5101031;28;20577;-53
2022/05/15 02:00:16;;;;;;;24.57;9.20;;;7.60;99.90;;;;;;5084049;28;20197;-53
2022/05/15 02:02:41;;;;;;;24.63;8.63;;;7.60;99.90;;;;;;5108063;28;20430;-53
2022/05/15 02:05:08;;;;;;;19.67;9.23;;;7.50;99.90;;;;;;5100810;28;20442;-53
2022/05/15 02:07:34;;;;;;;32.93;9.77;;;7.50;92.20;;;;;;5101277;28;20342;-53
2022/05/15 02:10:00;;;;;;;30.33;9.10;;;7.50;95.00;;;;;;5102321;28;20449;-53
2022/05/15 02:12:25;;;;;;;22.40;8.80;;;7.50;1.00;;;;;;5101654;28;20770;-53
2022/05/15 02:14:51;;;;;;;25.43;8.93;;;7.40;1.00;;;;;;5101835;28;20208;-53
2022/05/15 02:17:16;;;;;;;23.53;9.03;;;7.40;1.00;;;;;;5108473;28;20626;-54
2022/05/15 02:19:42;;;;;;;31.50;10.43;;;7.30;1.00;;;;;;5105086;28;20277;-53
2022/05/15 02:22:07;;;;;;;27.00;9.43;;;7.30;1.00;;;;;;5102716;28;20201;-53
2022/05/15 02:24:33;;;;;;;24.53;9.00;;;7.30;99.90;;;;;;5085963;28;21067;-53
2022/05/15 02:26:58;;;;;;;27.93;10.30;;;7.30;99.90;;;;;;5104658;28;20275;-54
2022/05/15 02:29:24;;;;;;;32.97;10.37;;;7.20;99.90;;;;;;5107292;28;20317;-53
2022/05/15 02:31:49;;;;;;;25.87;9.43;;;7.20;99.90;;;;;;5098514;28;20212;-53
2022/05/15 02:34:15;;;;;;;26.73;9.63;;;7.20;99.90;;;;;;5100263;28;20686;-53
2022/05/15 02:36:40;;;;;;;21.20;9.37;;;7.10;99.90;;;;;;5106514;28;20245;-53
2022/05/15 02:39:06;;;;;;;25.37;9.37;;;7.10;45.20;;;;;;5098058;28;20234;-53
2022/05/15 02:41:33;;;;;;;28.50;10.07;;;7.10;99.90;;;;;;5077591;28;20599;-53
2022/05/15 02:43:59;;;;;;;24.97;10.17;;;7.00;99.90;;;;;;5103254;28;20252;-53
2022/05/15 02:46:25;;;;;;;28.83;10.80;;;7.00;99.90;;;;;;5104644;28;20820;-53
2022/05/15 02:51:34;;;;;;;32.70;10.73;;;7.00;99.90;;;;;;5106587;28;20700;-53
2022/05/15 02:54:00;;;;;;;32.00;10.53;;;6.90;99.90;;;;;;5100042;28;20421;-53
2022/05/15 02:56:30;;;;;;;25.87;10.30;;;6.90;99.90;;;;;;5098164;28;20327;-53
2022/05/15 02:58:55;;;;;;;27.80;9.80;;;6.90;99.90;;;;;;5104708;28;20176;-53
2022/05/15 03:01:21;;;;;;;29.20;9.60;;;6.80;99.90;;;;;;5097546;28;20445;-53
2022/05/15 03:03:47;;;;;;;33.20;11.77;;;6.90;99.90;;;;;;5102444;28;20181;-53
2022/05/15 03:06:13;;;;;;;26.90;10.87;;;6.80;99.90;;;;;;5100903;28;20433;-53
2022/05/15 03:08:42;;;;;;;34.37;12.40;;;6.80;99.90;;;;;;5098721;28;20287;-53
2022/05/15 03:11:09;;;;;;;31.93;13.13;;;6.90;99.90;;;;;;5107189;28;20567;-53
2022/05/15 03:13:35;;;;;;;23.17;10.57;;;6.90;99.90;;;;;;5104143;28;20906;-53
2022/05/15 03:16:02;;;;;;;29.50;10.97;;;6.80;99.90;;;;;;5099549;28;20603;-53
2022/05/15 03:18:27;;;;;;;27.50;10.20;;;6.90;99.90;;;;;;5094701;28;20533;-53
2022/05/15 03:20:53;;;;;;;24.73;10.20;;;6.90;99.90;;;;;;5099102;28;21030;-53
2022/05/15 03:23:18;;;;;;;36.53;13.00;;;6.90;99.90;;;;;;5103482;28;20233;-53
2022/05/15 03:25:44;;;;;;;33.03;11.40;;;6.90;99.90;;;;;;5100781;28;20193;-53
2022/05/15 03:28:10;;;;;;;25.20;11.30;;;6.80;99.90;;;;;;5102849;28;20204;-53
2022/05/15 03:30:38;;;;;;;30.57;11.40;;;6.90;99.90;;;;;;5108921;28;20954;-53
2022/05/15 03:33:04;;;;;;;25.27;10.10;;;6.90;99.90;;;;;;5096895;28;20414;-53
2022/05/15 03:35:29;;;;;;;29.77;10.83;;;6.90;99.90;;;;;;5102251;28;20822;-53
2022/05/15 03:37:55;;;;;;;22.53;10.50;;;6.90;99.90;;;;;;5094940;28;20438;-54
2022/05/15 03:40:20;;;;;;;35.83;11.60;;;6.90;99.90;;;;;;5105553;28;20257;-54
2022/05/15 03:42:46;;;;;;;30.53;12.10;;;6.90;99.90;;;;;;5101315;28;20192;-53
2022/05/15 03:45:11;;;;;;;36.33;13.33;;;7.00;99.90;;;;;;5102023;28;20201;-53
2022/05/15 03:47:47;;;;;;;33.57;14.17;;;7.00;99.90;;;;;;5107363;28;20307;-53
2022/05/15 03:50:14;;;;;;;34.90;13.20;;;7.10;99.90;;;;;;5091679;28;20225;-53
2022/05/15 03:52:41;;;;;;;22.40;12.00;;;7.10;99.90;;;;;;5104961;28;20768;-53
2022/05/15 03:55:08;;;;;;;35.63;14.03;;;7.10;99.90;;;;;;5105079;28;20470;-53
2022/05/15 03:57:33;;;;;;;26.83;12.43;;;7.10;99.90;;;;;;5102921;28;20904;-53
2022/05/15 03:59:59;;;;;;;28.67;12.00;;;7.20;99.90;;;;;;5108737;28;20434;-53
2022/05/15 04:02:25;;;;;;;40.17;15.33;;;7.20;99.90;;;;;;5108696;28;20201;-53
2022/05/15 04:04:50;;;;;;;33.37;13.70;;;7.20;99.90;;;;;;5104957;28;20551;-53
2022/05/15 04:07:16;;;;;;;37.10;14.40;;;7.20;99.90;;;;;;5108343;28;20184;-53
2022/05/15 04:09:41;;;;;;;30.53;13.37;;;7.20;99.90;;;;;;5106061;28;20582;-53
2022/05/15 04:12:11;;;;;;;40.70;14.83;;;7.20;99.90;;;;;;5107607;28;20196;-53
2022/05/15 04:14:38;;;;;;;30.40;13.40;;;7.20;99.90;;;;;;5100965;28;20203;-53
2022/05/15 04:17:04;;;;;;;30.50;15.27;;;7.30;99.90;;;;;;5106053;28;20506;-53
2022/05/15 04:19:30;;;;;;;32.43;14.33;;;7.30;99.90;;;;;;5101420;28;20558;-53
2022/05/15 04:21:58;;;;;;;39.40;15.70;;;7.40;99.90;;;;;;5105354;28;20814;-53
2022/05/15 04:24:24;;;;;;;33.07;13.30;;;7.40;99.90;;;;;;5102540;28;20180;-53
2022/05/15 04:26:49;;;;;;;30.80;14.00;;;7.60;99.90;;;;;;5106207;28;20516;-53
2022/05/15 04:29:16;;;;;;;27.70;12.80;;;7.60;99.90;;;;;;5103177;28;20605;-53
2022/05/15 04:31:41;;;;;;;33.70;14.60;;;7.70;99.90;;;;;;5104097;28;20201;-53
2022/05/15 04:34:07;;;;;;;39.97;16.30;;;7.80;99.90;;;;;;5107137;28;20436;-53
2022/05/15 04:36:34;;;;;;;30.93;14.70;;;7.90;99.90;;;;;;5093567;28;20216;-53
2022/05/15 04:39:03;;;;;;;31.13;12.90;;;8.00;99.90;;;;;;5097082;28;20505;-53
2022/05/15 04:41:29;;;;;;;42.53;15.10;;;8.10;99.90;;;;;;5105003;28;20889;-53
2022/05/15 04:43:55;;;;;;;32.87;13.70;;;8.20;99.90;;;;;;5097731;28;20442;-53
2022/05/15 04:46:22;;;;;;;27.10;13.13;;;8.30;99.90;;;;;;5106768;28;20291;-53
2022/05/15 04:48:47;;;;;;;34.47;14.70;;;8.50;99.90;;;;;;5105975;28;20219;-53
2022/05/15 04:51:13;;;;;;;28.57;12.80;;;8.60;99.90;;;;;;5102611;28;20518;-53
2022/05/15 04:53:38;;;;;;;24.93;12.77;;;8.80;99.90;;;;;;5105393;28;20556;-53
2022/05/15 04:56:04;;;;;;;40.27;14.90;;;8.90;99.90;;;;;;5100536;28;20224;-53
2022/05/15 04:58:30;;;;;;;30.77;14.40;;;9.00;99.90;;;;;;5103306;28;20216;-53
2022/05/15 05:00:56;;;;;;;28.53;13.80;;;9.20;99.90;;;;;;5093061;28;20200;-53
2022/05/15 05:03:21;;;;;;;31.43;15.20;;;9.40;99.90;;;;;;5103427;28;20197;-53
2022/05/15 05:05:48;;;;;;;31.67;13.50;;;9.50;99.90;;;;;;5106282;28;20220;-53
2022/05/15 05:08:13;;;;;;;29.63;15.20;;;9.70;99.90;;;;;;5096858;28;20197;-53
2022/05/15 05:10:39;;;;;;;31.53;15.00;;;9.90;99.90;;;;;;5106878;28;20445;-53
2022/05/15 05:13:06;;;;;;;28.67;15.60;;;10.10;99.90;;;;;;5105827;28;20201;-53
2022/05/15 05:15:31;;;;;;;30.37;14.67;;;10.30;1.00;;;;;;5099861;28;21302;-53
2022/05/15 05:17:57;;;;;;;33.20;15.63;;;10.40;1.00;;;;;;5106372;28;20533;-53
2022/05/15 05:20:23;;;;;;;29.10;14.30;;;10.60;99.90;;;;;;5105996;28;20732;-53
2022/05/15 05:22:49;;;;;;;32.23;15.13;;;10.80;99.90;;;;;;5101084;28;20211;-53
2022/05/15 05:25:15;;;;;;;25.17;14.23;;;10.90;99.90;;;;;;5101814;28;20208;-53
2022/05/15 05:27:42;;;;;;;41.27;15.10;;;11.10;99.90;;;;;;5106657;28;20445;-53
2022/05/15 05:30:12;;;;;;;26.50;12.60;;;11.20;99.90;;;;;;5106338;28;20528;-53
2022/05/15 05:32:37;;;;;;;29.77;13.60;;;11.40;16.90;;;;;;5101071;28;20474;-53
2022/05/15 05:35:04;;;;;;;27.53;11.33;;;11.60;1.00;;;;;;5105510;28;21266;-53
2022/05/15 05:37:30;;;;;;;27.47;12.00;;;11.70;1.00;;;;;;5106552;28;20608;-53
2022/05/15 05:39:56;;;;;;;23.83;10.40;;;11.90;99.90;;;;;;5098096;28;20427;-54
2022/05/15 05:42:22;;;;;;;21.77;11.00;;;12.00;99.90;;;;;;5103777;28;20259;-53
2022/05/15 05:44:47;;;;;;;15.70;10.20;;;12.20;99.90;;;;;;5107412;28;20450;-53
2022/05/15 05:47:13;;;;;;;25.70;11.13;;;12.40;99.90;;;;;;5088856;28;20222;-53
2022/05/15 05:49:38;;;;;;;22.20;9.43;;;12.70;99.90;;;;;;5101684;28;20223;-53
2022/05/15 05:52:04;;;;;;;18.37;9.47;;;12.80;1.00;;;;;;5102608;28;20243;-53
2022/05/15 05:54:30;;;;;;;25.90;9.33;;;13.00;1.00;;;;;;5101352;28;20197;-53
2022/05/15 05:56:57;;;;;;;22.40;9.00;;;13.10;1.00;;;;;;5103040;28;20574;-53
2022/05/15 05:59:23;;;;;;;23.73;8.90;;;13.30;1.00;;;;;;5105321;28;20200;-53
2022/05/15 06:01:48;;;;;;;18.50;8.73;;;13.40;1.00;;;;;;5102252;28;20441;-53
2022/05/15 06:06:58;;;;;;;23.70;8.50;;;13.70;1.00;;;;;;5101181;28;20277;-53
2022/05/15 06:09:23;;;;;;;24.97;9.83;;;13.90;99.90;;;;;;5108481;28;20469;-52
2022/05/15 06:11:49;;;;;;;20.57;9.20;;;14.00;99.90;;;;;;5103736;28;20203;-53
2022/05/15 06:14:14;;;;;;;21.03;7.93;;;14.10;99.90;;;;;;5105175;28;20318;-52
2022/05/15 06:16:40;;;;;;;14.97;7.53;;;14.20;99.90;;;;;;5098679;28;20319;-52
2022/05/15 06:19:05;;;;;;;13.90;6.93;;;14.30;99.90;;;;;;5100360;28;20240;-52
2022/05/15 06:21:31;;;;;;;21.73;8.07;;;14.40;99.90;;;;;;5101508;28;20614;-52
2022/05/15 06:23:56;;;;;;;20.53;7.80;;;14.60;99.90;;;;;;5102524;28;20226;-52
2022/05/15 06:26:22;;;;;;;17.33;4.50;;;14.90;99.90;;;;;;5101382;28;20263;-52
2022/05/15 06:28:47;;;;;;;16.40;4.60;;;15.00;99.90;;;;;;5100915;28;20253;-52
2022/05/15 06:31:13;;;;;;;21.57;5.80;;;15.20;99.90;;;;;;5106833;28;20262;-52
2022/05/15 06:33:38;;;;;;;13.90;5.60;;;15.30;99.90;;;;;;5091503;28;20204;-52
2022/05/15 06:36:04;;;;;;;21.27;6.30;;;15.40;99.90;;;;;;5108118;28;20223;-52
2022/05/15 06:38:30;;;;;;;15.50;5.33;;;15.50;99.90;;;;;;5103524;28;20207;-51
2022/05/15 06:40:56;;;;;;;13.50;5.50;;;15.60;99.90;;;;;;5107831;28;20776;-52
2022/05/15 06:43:21;;;;;;;9.60;3.93;;;15.90;99.90;;;;;;5096335;28;20192;-52
2022/05/15 06:45:48;;;;;;;10.47;4.23;;;16.10;99.90;;;;;;5100975;28;20493;-51
2022/05/15 06:48:14;;;;;;;14.23;3.80;;;16.30;99.90;;;;;;5103945;28;20307;-52
2022/05/15 06:50:40;;;;;;;13.90;4.17;;;16.50;99.90;;;;;;5104385;28;20816;-52
2022/05/15 06:53:13;;;;;;;14.30;3.57;;;16.70;99.90;;;;;;5106517;28;20427;-51
2022/05/15 06:57:28;;;;;;;9.07;4.23;;;16.70;99.90;;;;;;5099043;28;20491;-51
2022/05/15 06:58:28;;;;;;;11.67;4.10;;;16.80;99.90;;;;;;5096478;28;20410;-51
2022/05/15 07:00:54;;;;;;;8.13;3.53;;;17.10;99.90;;;;;;5103576;28;20524;-51
2022/05/15 07:03:20;;;;;;;6.67;3.03;;;17.10;99.90;;;;;;5098617;28;20524;-51
2022/05/15 07:05:46;;;;;;;11.40;2.83;;;17.30;99.90;;;;;;5108202;28;20223;-52
2022/05/15 07:08:11;;;;;;;7.33;3.10;;;17.50;99.90;;;;;;5103460;28;20429;-51
2022/05/15 07:10:38;;;;;;;8.00;3.13;;;17.60;99.90;;;;;;5102150;28;20258;-51
2022/05/15 07:13:03;;;;;;;9.10;3.40;;;17.60;99.90;;;;;;5105302;28;20196;-51
2022/05/15 07:15:31;;;;;;;7.83;2.73;;;17.90;99.90;;;;;;5104952;28;20482;-51
2022/05/15 07:17:56;;;;;;;8.83;2.43;;;18.10;99.90;;;;;;5105702;28;20296;-51
2022/05/15 07:20:22;;;;;;;8.20;3.30;;;18.20;99.90;;;;;;5091646;28;20575;-50
2022/05/15 07:22:47;;;;;;;10.70;5.50;;;18.20;99.90;;;;;;5101197;28;20192;-51
2022/05/15 07:25:13;;;;;;;10.90;3.73;;;18.40;99.90;;;;;;5110150;28;20200;-51
2022/05/15 07:27:39;;;;;;;5.67;2.57;;;18.60;99.90;;;;;;5105488;28;20185;-51
2022/05/15 07:30:05;;;;;;;6.73;2.93;;;18.90;99.90;;;;;;5106673;28;20502;-51
2022/05/15 07:32:30;;;;;;;8.50;2.47;;;19.20;99.90;;;;;;5105940;28;20201;-51
2022/05/15 07:34:56;;;;;;;5.43;2.20;;;19.50;99.90;;;;;;5101397;27;20919;-51
2022/05/15 07:37:21;;;;;;;7.20;3.27;;;19.80;99.90;;;;;;5106479;28;20197;-51
2022/05/15 07:39:47;;;;;;;5.77;2.43;;;20.00;99.90;;;;;;5106445;28;20291;-51
2022/05/15 07:42:12;;;;;;;5.00;1.90;;;20.00;99.90;;;;;;5099425;28;20199;-51
2022/05/15 07:44:38;;;;;;;7.30;2.47;;;20.00;99.90;;;;;;5105015;28;20200;-51
2022/05/15 07:47:05;;;;;;;5.80;2.10;;;20.10;99.90;;;;;;5108318;28;20197;-51
2022/05/15 07:49:31;;;;;;;4.67;2.30;;;20.10;99.90;;;;;;5091326;28;20437;-51
2022/05/15 07:51:57;;;;;;;4.20;2.00;;;20.30;99.90;;;;;;5106541;28;20419;-51
2022/05/15 07:54:23;;;;;;;2.43;1.33;;;20.50;99.90;;;;;;5104915;28;20957;-51
2022/05/15 07:56:48;;;;;;;3.00;1.47;;;20.80;99.90;;;;;;5108979;28;20224;-51
2022/05/15 07:59:14;;;;;;;4.30;1.73;;;20.90;99.90;;;;;;5112525;28;20643;-51
2022/05/15 08:01:40;;;;;;;2.83;1.37;;;21.20;99.90;;;;;;5101471;28;20212;-51
2022/05/15 08:04:06;;;;;;;2.90;1.30;;;21.40;99.90;;;;;;5113314;28;20192;-51
2022/05/15 08:09:16;;;;;;;2.70;1.77;;;21.30;99.90;;;;;;5109716;28;20927;-52
2022/05/15 08:11:42;;;;;;;3.37;1.73;;;21.40;99.90;;;;;;5092595;28;20514;-51
2022/05/15 08:14:09;;;;;;;4.60;1.47;;;21.80;99.90;;;;;;5105303;28;20230;-55
2022/05/15 08:16:36;;;;;;;3.13;1.60;;;22.10;99.90;;;;;;5106604;27;20929;-51
2022/05/15 08:24:38;;;;;;;3.03;1.53;;;22.00;99.90;;;;;;5106477;28;20433;-51
2022/05/15 08:27:04;;;;;;;2.53;1.60;;;22.10;99.90;;;;;;5099415;28;20430;-52
2022/05/15 08:29:30;;;;;;;2.57;1.90;;;22.40;99.90;;;;;;5106504;28;21014;-51
2022/05/15 08:31:55;;;;;;;2.07;1.67;;;22.40;99.90;;;;;;5099856;28;20513;-51
2022/05/15 08:34:21;;;;;;;3.60;1.43;;;22.50;99.90;;;;;;5106866;28;20207;-51
2022/05/15 08:36:47;;;;;;;4.67;1.83;;;22.80;99.90;;;;;;5097372;28;20624;-52
2022/05/15 08:39:14;;;;;;;4.57;1.50;;;23.20;99.90;;;;;;5107690;28;20287;-52
2022/05/15 08:41:51;;;;;;;4.57;1.70;;;23.40;99.90;;;;;;5103457;28;20437;-51
2022/05/15 08:44:32;;;;;;;5.33;1.90;;;23.60;99.90;;;;;;5109981;28;20525;-52
2022/05/15 08:47:37;;;;;;;7.33;1.40;;;23.50;99.90;;;;;;5098535;28;20418;-52
2022/05/15 08:50:09;;;;;;;2.20;1.50;;;23.50;99.90;;;;;;5109194;28;20483;-52
2022/05/15 08:52:42;;;;;;;3.30;1.80;;;23.50;99.90;;;;;;5095718;28;21010;-52
2022/05/15 08:55:14;;;;;;;3.23;1.30;;;23.20;99.90;;;;;;5106953;28;20507;-52
2022/05/15 08:57:54;;;;;;;3.53;2.20;;;23.20;99.90;;;;;;5101762;28;20403;-52
2022/05/15 09:00:40;;;;;;;3.50;1.53;;;23.40;99.90;;;;;;5106215;28;20427;-52
2022/05/15 09:03:23;;;;;;;3.00;1.80;;;23.70;99.90;;;;;;5103662;28;20426;-52
2022/05/15 09:05:57;;;;;;;2.50;1.77;;;23.40;99.90;;;;;;5100542;28;20789;-52
2022/05/15 09:09:01;;;;;;;3.17;1.50;;;23.40;99.90;;;;;;5108402;28;20425;-51
2022/05/15 09:11:52;;;;;;;2.03;1.50;;;23.50;99.90;;;;;;5107176;28;20439;-51
2022/05/15 09:14:56;;;;;;;5.67;2.00;;;23.40;99.90;;;;;;5103859;28;20436;-51
2022/05/15 09:17:34;;;;;;;2.73;1.60;;;23.90;99.90;;;;;;5104548;28;20484;-51
2022/05/15 09:20:09;;;;;;;2.53;1.40;;;24.30;99.90;;;;;;5104296;28;20464;-51
2022/05/15 09:22:41;;;;;;;2.50;1.60;;;24.60;99.90;;;;;;5105340;28;20771;-51
2022/05/15 09:25:16;;;;;;;3.60;1.87;;;24.50;99.90;;;;;;5107561;28;20434;-51
2022/05/15 09:28:00;;;;;;;1.90;1.50;;;24.30;99.90;;;;;;5097088;28;20430;-51
2022/05/15 09:30:33;;;;;;;2.20;1.53;;;24.20;99.90;;;;;;5105220;28;20411;-51
2022/05/15 09:32:59;;;;;;;4.10;1.37;;;24.10;99.90;;;;;;5102244;28;20424;-50
2022/05/15 09:35:43;;;;;;;1.90;1.60;;;24.00;99.90;;;;;;5097980;28;20457;-51
2022/05/15 09:38:27;;;;;;;1.30;1.20;;;24.30;99.90;;;;;;5100389;28;20236;-51
2022/05/15 09:44:31;;;;;;;3.87;1.80;;;24.10;99.90;;;;;;5108296;28;21172;-51
2022/05/15 09:47:01;;;;;;;3.20;1.77;;;24.10;99.90;;;;;;5104799;28;20418;-52
2022/05/15 09:49:33;;;;;;;2.77;1.30;;;24.30;99.90;;;;;;5104318;28;20422;-51
2022/05/15 09:52:02;;;;;;;4.53;1.70;;;24.50;99.90;;;;;;5102580;28;20473;-51
2022/05/15 09:54:28;;;;;;;2.03;1.13;;;24.70;99.90;;;;;;5100371;28;20466;-51
2022/05/15 09:57:13;;;;;;;2.40;1.43;;;25.00;99.90;;;;;;5102186;27;20462;-52
2022/05/15 09:59:40;;;;;;;3.90;1.47;;;25.00;99.90;;;;;;5101138;28;20515;-51
2022/05/15 10:02:15;;;;;;;3.23;1.40;;;24.90;99.90;;;;;;5108697;27;20462;-51
2022/05/15 10:04:40;;;;;;;2.73;1.47;;;25.10;99.90;;;;;;5101236;28;20426;-52
2022/05/15 10:07:09;;;;;;;3.50;1.30;;;25.40;99.90;;;;;;5106258;28;20440;-51
2022/05/15 10:09:37;;;;;;;3.27;1.50;;;25.20;99.90;;;;;;5103802;28;20203;-51
2022/05/15 10:12:08;;;;;;;4.10;1.57;;;25.30;99.90;;;;;;5108456;28;20461;-52
2022/05/15 10:14:37;;;;;;;4.10;1.70;;;25.50;99.90;;;;;;5106487;28;20995;-52
2022/05/15 10:17:03;;;;;;;3.83;1.43;;;25.10;99.90;;;;;;5080307;28;20505;-52
2022/05/15 10:19:41;;;;;;;2.97;1.20;;;24.90;99.90;;;;;;5100840;28;20841;-51
2022/05/15 10:22:37;;;;;;;3.07;1.43;;;24.90;99.90;;;;;;5101268;28;20211;-51
2022/05/15 10:25:51;;;;;;;3.13;1.50;;;25.00;99.90;;;;;;5101676;28;20431;-51
2022/05/15 10:28:32;;;;;;;4.00;1.40;;;25.20;99.90;;;;;;5094606;28;20486;-51
2022/05/15 10:31:13;;;;;;;3.20;1.30;;;25.60;99.90;;;;;;5103243;28;20475;-52
2022/05/15 10:33:41;;;;;;;2.03;1.47;;;25.90;99.90;;;;;;5104390;28;20409;-51
2022/05/15 10:36:15;;;;;;;2.00;1.10;;;25.80;99.90;;;;;;5103936;28;20457;-52
2022/05/15 10:38:52;;;;;;;4.10;1.50;;;25.30;99.90;;;;;;5099939;28;20490;-52
2022/05/15 10:41:45;;;;;;;3.43;1.50;;;25.40;99.90;;;;;;5104951;28;20517;-52
2022/05/15 10:44:24;;;;;;;2.13;1.40;;;25.20;99.90;;;;;;5098853;28;20920;-51
2022/05/15 10:46:57;;;;;;;2.57;1.30;;;25.80;99.90;;;;;;5105953;28;20433;-52
2022/05/15 10:49:40;;;;;;;2.80;1.23;;;26.20;99.90;;;;;;5105922;28;20434;-52
2022/05/15 10:52:30;;;;;;;1.60;1.20;;;26.80;99.90;;;;;;5085805;28;20445;-51
2022/05/15 10:58:16;;;;;;;1.40;1.17;;;27.50;99.90;;;;;;5101718;28;20932;-52
2022/05/15 11:00:49;;;;;;;1.90;1.37;;;27.60;99.90;;;;;;5110263;28;20871;-52
2022/05/15 11:03:15;;;;;;;7.23;1.57;;;27.70;99.90;;;;;;5103435;27;20434;-52
2022/05/15 11:06:18;;;;;;;3.00;1.50;;;27.60;99.90;;;;;;5105636;27;20482;-52
2022/05/15 11:08:52;;;;;;;37.70;4.77;;;27.60;99.90;;;;;;5105035;28;20865;-52
2022/05/15 11:11:39;;;;;;;1.67;1.33;;;27.40;99.90;;;;;;5105951;28;20457;-52
2022/05/15 11:14:31;;;;;;;2.40;1.20;;;27.30;99.90;;;;;;5100382;28;20777;-51
2022/05/15 11:17:14;;;;;;;2.00;1.50;;;27.30;99.90;;;;;;5084744;28;20473;-52
2022/05/15 11:19:44;;;;;;;2.00;1.30;;;26.90;99.90;;;;;;5107801;28;20478;-52
2022/05/15 11:22:32;;;;;;;1.90;1.50;;;27.20;99.90;;;;;;5109219;28;20548;-53
2022/05/15 11:25:04;;;;;;;2.73;1.30;;;27.00;99.90;;;;;;5103255;28;20419;-52
2022/05/15 11:27:49;;;;;;;2.30;1.37;;;26.40;99.90;;;;;;5108215;28;20415;-52
2022/05/15 11:30:24;;;;;;;1.90;1.43;;;26.60;99.90;;;;;;5100543;28;20438;-53
2022/05/15 11:32:52;;;;;;;4.07;1.63;;;27.00;99.90;;;;;;5109038;27;20437;-52
2022/05/15 11:35:17;;;;;;;2.00;1.20;;;27.40;99.90;;;;;;5103854;27;20472;-52
2022/05/15 11:38:02;;;;;;;1.80;1.40;;;27.60;99.90;;;;;;5106358;27;20434;-52
2022/05/15 11:40:39;;;;;;;3.30;1.50;;;27.40;99.90;;;;;;5108299;27;20191;-52
2022/05/15 11:43:26;;;;;;;2.97;1.33;;;27.70;99.90;;;;;;5104381;28;20529;-52
2022/05/15 11:46:03;;;;;;;2.23;1.23;;;27.80;99.90;;;;;;5106326;28;20525;-52
2022/05/15 11:48:38;;;;;;;4.27;1.60;;;27.80;99.90;;;;;;5108477;27;20437;-52
2022/05/15 11:51:31;;;;;;;3.63;1.33;;;28.10;99.90;;;;;;5108880;28;20822;-52
2022/05/15 11:53:56;;;;;;;6.00;1.57;;;28.40;99.90;;;;;;5111280;27;20907;-52
2022/05/15 11:56:36;;;;;;;3.40;1.63;;;28.80;99.90;;;;;;5108038;28;20462;-52
2022/05/15 11:59:26;;;;;;;2.90;1.20;;;29.10;99.90;;;;;;5103400;28;20918;-52
2022/05/15 12:02:00;;;;;;;3.03;1.30;;;29.00;99.90;;;;;;5103763;28;20487;-52
2022/05/15 12:04:35;;;;;;;2.13;1.60;;;28.90;99.90;;;;;;5104151;28;20506;-52
2022/05/15 12:07:00;;;;;;;1.30;1.20;;;28.70;99.90;;;;;;5100891;28;20916;-53
2022/05/15 12:09:41;;;;;;;3.80;1.60;;;28.80;99.90;;;;;;5103349;28;20536;-52
2022/05/15 12:12:30;;;;;;;3.53;1.60;;;29.20;99.90;;;;;;5110514;28;20203;-52
2022/05/15 12:15:16;;;;;;;4.07;1.70;;;29.50;99.90;;;;;;5089439;28;20443;-52
2022/05/15 12:17:52;;;;;;;2.00;1.53;;;29.40;99.90;;;;;;5107039;28;20438;-52
2022/05/15 12:20:29;;;;;;;2.70;1.43;;;29.30;99.90;;;;;;5102004;28;20469;-52
2022/05/15 12:23:15;;;;;;;3.20;1.60;;;29.20;99.90;;;;;;5100844;28;20414;-52
2022/05/15 12:25:59;;;;;;;1.77;1.40;;;29.20;99.90;;;;;;5109070;27;20503;-52
2022/05/15 12:28:53;;;;;;;2.03;1.80;;;29.20;99.90;;;;;;5106342;27;20447;-52
2022/05/15 12:31:40;;;;;;;2.23;1.60;;;29.30;99.90;;;;;;5102403;28;20449;-52
2022/05/15 12:34:25;;;;;;;2.03;1.83;;;29.40;99.90;;;;;;5100155;28;20969;-53
2022/05/15 12:37:08;;;;;;;3.63;1.60;;;28.80;99.90;;;;;;5105964;28;20496;-52
2022/05/15 12:39:38;;;;;;;2.07;1.67;;;28.10;99.90;;;;;;5100753;28;20491;-52
2022/05/15 12:42:33;;;;;;;2.30;1.60;;;28.20;99.90;;;;;;5103453;28;20539;-52
2022/05/15 12:45:09;;;;;;;4.40;1.80;;;28.60;99.90;;;;;;5103689;28;20423;-52
2022/05/15 12:47:36;;;;;;;2.17;1.70;;;28.40;99.90;;;;;;5104264;28;20465;-52
2022/05/15 12:50:16;;;;;;;2.30;1.47;;;28.30;99.90;;;;;;5097974;28;20517;-52
2022/05/15 12:52:42;;;;;;;2.30;1.70;;;28.50;99.90;;;;;;5101717;28;20425;-52
2022/05/15 12:55:23;;;;;;;2.50;1.60;;;28.20;99.90;;;;;;5095821;28;20531;-52
2022/05/15 12:57:51;;;;;;;3.50;1.77;;;28.00;99.90;;;;;;5101455;27;20245;-52
2022/05/15 13:00:22;;;;;;;5.20;2.20;;;28.00;99.90;;;;;;5102444;28;20534;-50
2022/05/15 13:02:48;;;;;;;3.17;1.67;;;28.10;99.90;;;;;;5097351;28;20946;-49
2022/05/15 13:05:24;;;;;;;4.23;1.60;;;28.40;99.90;;;;;;5103509;28;20434;-52
2022/05/15 13:07:55;;;;;;;5.37;1.60;;;28.50;99.90;;;;;;5090141;28;20441;-52
2022/05/15 13:10:23;;;;;;;1.63;1.53;;;28.60;99.90;;;;;;5108393;28;20453;-52
2022/05/15 13:13:11;;;;;;;2.70;1.70;;;28.90;99.90;;;;;;5106295;28;20493;-52
2022/05/15 13:15:37;;;;;;;3.03;2.30;;;29.20;99.90;;;;;;5095784;28;20490;-52
2022/05/15 13:18:06;;;;;;;3.40;1.90;;;29.00;99.90;;;;;;5102235;28;20446;-52
2022/05/15 13:20:38;;;;;;;2.37;1.70;;;28.50;99.90;;;;;;5091951;28;20334;-52